createdAt,value
2023-03-21T00:01:54.960Z,100171.60
2023-03-21T00:04:33.182Z,100167.35
2023-03-21T00:07:09.014Z,100165.98
2023-03-21T00:09:39.897Z,100166.17
2023-03-21T00:12:11.935Z,100166.00
2023-03-21T00:14:43.506Z,100162.75
2023-03-21T00:17:16.000Z,100160.54
2023-03-21T00:19:46.889Z,100158.34
2023-03-21T00:22:17.780Z,100159.36
2023-03-21T00:24:48.780Z,100157.50
2023-03-21T00:27:42.964Z,100152.56
2023-03-21T00:30:14.206Z,100151.21
2023-03-21T00:32:55.432Z,100147.95
2023-03-21T00:35:57.864Z,100147.45
2023-03-21T00:38:27.891Z,100147.13
2023-03-21T00:41:04.722Z,100147.64
2023-03-21T00:43:38.862Z,100149.38
2023-03-21T00:46:10.226Z,100150.39
2023-03-21T00:48:41.578Z,100150.23
2023-03-21T00:51:26.182Z,100150.09
2023-03-21T00:54:01.155Z,100150.12
2023-03-21T00:56:31.185Z,100151.50
2023-03-21T00:59:02.136Z,100150.83
2023-03-21T01:01:33.204Z,100150.52
2023-03-21T01:04:05.848Z,100147.13
2023-03-21T01:06:40.284Z,100145.62
2023-03-21T01:09:15.966Z,100144.44
2023-03-21T01:11:47.679Z,100141.73
2023-03-21T01:14:23.519Z,100146.00
2023-03-21T01:16:55.487Z,100143.77
2023-03-21T01:19:48.278Z,100141.76
2023-03-21T01:22:19.501Z,100139.55
2023-03-21T01:24:55.379Z,100137.86
2023-03-21T01:27:29.466Z,100137.52
2023-03-21T01:30:00.716Z,100133.27
2023-03-21T01:32:31.625Z,100133.96
2023-03-21T01:35:10.860Z,100134.33
2023-03-21T01:37:46.533Z,100133.65
2023-03-21T01:40:30.447Z,100132.48
2023-03-21T01:43:32.980Z,100129.93
2023-03-21T01:46:27.315Z,100124.48
2023-03-21T01:49:14.135Z,100127.41
2023-03-21T01:51:48.979Z,100128.10
2023-03-21T01:54:27.207Z,100124.89
2023-03-21T01:57:01.881Z,100121.99
2023-03-21T01:59:42.312Z,100119.77
2023-03-21T02:02:21.035Z,100117.55
2023-03-21T02:05:07.210Z,100113.45
2023-03-21T02:07:41.984Z,100114.13
2023-03-21T02:10:16.197Z,100115.65
2023-03-21T02:12:57.602Z,100117.16
2023-03-21T02:15:37.099Z,100113.73
2023-03-21T02:18:33.015Z,100110.16
2023-03-21T02:21:54.431Z,100111.50
2023-03-21T02:25:04.197Z,100116.44
2023-03-21T02:27:43.833Z,100121.92
2023-03-21T02:30:59.669Z,100122.77
2023-03-21T02:33:51.209Z,100123.30
2023-03-21T02:36:34.117Z,100124.52
2023-03-21T02:39:13.695Z,100119.39
2023-03-21T02:41:49.778Z,100121.61
2023-03-21T02:44:39.448Z,100123.64
2023-03-21T02:47:14.405Z,100124.32
2023-03-21T02:49:53.546Z,100121.93
2023-03-21T02:52:37.804Z,100123.98
2023-03-21T02:55:15.835Z,100120.73
2023-03-21T02:58:13.277Z,100122.64
2023-03-21T03:00:55.612Z,100123.66
2023-03-21T03:03:37.129Z,100123.67
2023-03-21T03:06:21.343Z,100125.91
2023-03-21T03:09:08.356Z,100130.19
2023-03-21T03:11:42.978Z,100135.66
2023-03-21T03:14:49.813Z,100132.25
2023-03-21T03:17:37.450Z,100133.61
2023-03-21T03:20:25.774Z,100134.45
2023-03-21T03:23:04.721Z,100134.61
2023-03-21T03:25:43.865Z,100134.27
2023-03-21T03:28:23.792Z,100137.88
2023-03-21T03:31:08.806Z,100136.52
2023-03-21T03:33:59.440Z,100138.23
2023-03-21T03:36:37.036Z,100138.05
2023-03-21T03:39:33.075Z,100136.38
2023-03-21T03:42:21.679Z,100139.96
2023-03-21T03:45:02.571Z,100142.35
2023-03-21T03:47:50.775Z,100143.54
2023-03-21T03:50:33.054Z,100144.56
2023-03-21T03:53:17.729Z,100148.16
2023-03-21T03:55:51.367Z,100150.55
2023-03-21T03:58:27.449Z,100150.53
2023-03-21T04:01:04.669Z,100147.79
2023-03-21T04:03:48.503Z,100143.35
2023-03-21T04:06:22.280Z,100145.73
2023-03-21T04:08:53.849Z,100143.69
2023-03-21T04:11:25.386Z,100145.73
2023-03-21T04:13:57.714Z,100145.91
2023-03-21T04:16:32.839Z,100140.96
2023-03-21T04:19:05.777Z,100144.38
2023-03-21T04:21:37.354Z,100145.06
2023-03-21T04:24:09.101Z,100146.59
2023-03-21T04:26:40.802Z,100146.27
2023-03-21T04:29:26.145Z,100146.45
2023-03-21T04:32:27.028Z,100146.98
2023-03-21T04:35:09.882Z,100146.30
2023-03-21T04:37:41.683Z,100147.51
2023-03-21T04:40:19.071Z,100145.11
2023-03-21T04:42:51.462Z,100149.73
2023-03-21T04:45:22.476Z,100149.73
2023-03-21T04:47:53.557Z,100150.58
2023-03-21T04:50:24.586Z,100153.31
2023-03-21T04:52:55.555Z,100152.45
2023-03-21T04:55:28.144Z,100151.77
2023-03-21T04:57:59.822Z,100147.67
2023-03-21T05:00:37.663Z,100152.44
2023-03-21T05:03:10.245Z,100155.17
2023-03-21T05:05:41.433Z,100152.77
2023-03-21T05:08:13.305Z,100155.33
2023-03-21T05:10:44.869Z,100158.39
2023-03-21T05:13:16.097Z,100160.42
2023-03-21T05:15:47.172Z,100158.39
2023-03-21T05:18:25.050Z,100162.15
2023-03-21T05:21:10.785Z,100163.86
2023-03-21T05:23:42.249Z,100162.82
2023-03-21T05:26:13.887Z,100164.69
2023-03-21T05:29:00.494Z,100167.41
2023-03-21T05:31:39.271Z,100170.66
2023-03-21T05:34:14.529Z,100171.51
2023-03-21T05:37:00.164Z,100169.64
2023-03-21T05:39:43.110Z,100174.40
2023-03-21T05:42:19.688Z,100175.92
2023-03-21T05:44:51.138Z,100180.86
2023-03-21T05:47:24.344Z,100181.70
2023-03-21T05:49:59.942Z,100182.71
2023-03-21T05:52:33.538Z,100185.10
2023-03-21T05:55:12.636Z,100185.61
2023-03-21T05:57:43.614Z,100189.52
2023-03-21T06:00:24.470Z,100194.45
2023-03-21T06:03:05.323Z,100198.55
2023-03-21T06:05:49.212Z,100199.23
2023-03-21T06:08:24.381Z,100200.91
2023-03-21T06:10:55.887Z,100206.36
2023-03-21T06:13:27.410Z,100209.44
2023-03-21T06:15:59.243Z,100208.77
2023-03-21T06:18:30.585Z,100209.26
2023-03-21T06:21:20.784Z,100210.80
2023-03-21T06:23:55.140Z,100210.09
2023-03-21T06:26:30.595Z,100214.02
2023-03-21T06:29:01.946Z,100212.13
2023-03-21T06:31:34.370Z,100212.80
2023-03-21T06:34:06.689Z,100211.08
2023-03-21T06:36:40.036Z,100213.47
2023-03-21T06:39:11.603Z,100218.39
2023-03-21T06:41:43.968Z,100224.36
2023-03-21T06:44:15.438Z,100220.27
2023-03-21T06:46:53.624Z,100222.63
2023-03-21T06:49:24.663Z,100220.74
2023-03-21T06:51:55.828Z,100222.77
2023-03-21T06:54:28.124Z,100222.92
2023-03-21T06:57:05.398Z,100229.73
2023-03-21T06:59:41.715Z,100232.80
2023-03-21T07:02:15.401Z,100232.63
2023-03-21T07:05:04.890Z,100239.11
2023-03-21T07:07:36.030Z,100241.34
2023-03-21T07:10:08.032Z,100245.42
2023-03-21T07:12:49.943Z,100241.30
2023-03-21T07:15:41.865Z,100241.45
2023-03-21T07:18:12.935Z,100242.28
2023-03-21T07:20:48.465Z,100243.64
2023-03-21T07:23:20.493Z,100245.82
2023-03-21T07:25:52.596Z,100245.42
2023-03-21T07:28:31.476Z,100244.34
2023-03-21T07:31:14.536Z,100243.95
2023-03-21T07:33:46.361Z,100247.31
2023-03-21T07:36:39.864Z,100244.52
2023-03-21T07:39:21.114Z,100244.59
2023-03-21T07:41:52.253Z,100243.45
2023-03-21T07:44:38.460Z,100240.21
2023-03-21T07:47:15.436Z,100241.40
2023-03-21T07:52:42.229Z,100238.86
2023-03-21T07:55:17.463Z,100241.64
2023-03-21T07:57:57.926Z,100244.42
2023-03-21T08:00:32.745Z,100248.43
2023-03-21T08:03:12.247Z,100252.96
2023-03-21T08:05:45.508Z,100257.86
2023-03-21T08:08:18.968Z,100260.03
2023-03-21T08:11:15.069Z,100261.41
2023-03-21T08:13:50.421Z,100260.61
2023-03-21T08:16:24.358Z,100259.97
2023-03-21T08:18:57.663Z,100264.65
2023-03-21T08:21:28.836Z,100265.21
2023-03-21T08:23:59.829Z,100261.30
2023-03-21T08:26:32.324Z,100264.04
2023-03-21T08:29:04.043Z,100261.10
2023-03-21T08:31:36.357Z,100259.46
2023-03-21T08:34:07.742Z,100261.22
2023-03-21T08:36:40.860Z,100262.27
2023-03-21T08:40:07.165Z,100263.65
2023-03-21T08:42:38.651Z,100265.08
2023-03-21T08:45:14.558Z,100264.34
2023-03-21T08:47:47.115Z,100269.48
2023-03-21T08:50:23.554Z,100272.93
2023-03-21T08:52:54.865Z,100272.16
2023-03-21T08:55:25.910Z,100276.73
2023-03-21T08:57:58.348Z,100279.15
2023-03-21T09:00:29.830Z,100286.20
2023-03-21T09:03:14.297Z,100285.39
2023-03-21T09:05:54.173Z,100283.23
2023-03-21T09:08:27.713Z,100288.35
2023-03-21T09:10:59.195Z,100290.11
2023-03-21T09:13:30.243Z,100292.04
2023-03-21T09:16:01.499Z,100290.88
2023-03-21T09:18:45.466Z,100293.02
2023-03-21T09:21:28.441Z,100292.74
2023-03-21T09:24:09.154Z,100293.64
2023-03-21T09:26:41.853Z,100301.70
2023-03-21T09:29:16.735Z,100304.64
2023-03-21T09:31:48.458Z,100305.02
2023-03-21T09:34:19.760Z,100308.52
2023-03-21T09:36:56.754Z,100309.60
2023-03-21T09:39:32.042Z,100312.09
2023-03-21T09:42:26.825Z,100308.38
2023-03-21T09:45:09.358Z,100311.52
2023-03-21T09:47:53.454Z,100310.56
2023-03-21T09:50:32.041Z,100311.98
2023-03-21T09:53:07.256Z,100311.86
2023-03-21T09:55:38.076Z,100311.88
2023-03-21T09:58:29.221Z,100313.27
2023-03-21T10:01:10.706Z,100312.08
2023-03-21T10:03:44.025Z,100314.52
2023-03-21T10:06:19.676Z,100314.73
2023-03-21T10:08:52.613Z,100312.41
2023-03-21T10:11:28.623Z,100318.67
2023-03-21T10:14:04.994Z,100324.42
2023-03-21T10:16:40.954Z,100328.08
2023-03-21T10:19:18.154Z,100327.69
2023-03-21T10:22:02.160Z,100333.95
2023-03-21T10:24:36.386Z,100332.84
2023-03-21T10:27:08.342Z,100331.15
2023-03-21T10:29:44.835Z,100332.33
2023-03-21T10:32:23.015Z,100331.75
2023-03-21T10:37:36.585Z,100327.84
2023-03-21T10:40:18.602Z,100329.80
2023-03-21T10:42:50.774Z,100331.76
2023-03-21T10:45:23.888Z,100332.83
2023-03-21T10:48:01.605Z,100332.48
2023-03-21T10:50:33.115Z,100329.56
2023-03-21T10:53:04.684Z,100330.59
2023-03-21T10:55:42.059Z,100328.16
2023-03-21T10:58:25.194Z,100330.84
2023-03-21T11:01:02.196Z,100329.19
2023-03-21T11:03:39.618Z,100325.80
2023-03-21T11:06:16.187Z,100329.02
2023-03-21T11:08:51.386Z,100320.62
2023-03-21T11:11:27.602Z,100322.89
2023-03-21T11:14:07.214Z,100320.61
2023-03-21T11:17:27.798Z,100323.30
2023-03-21T11:28:17.924Z,100317.00
2023-03-21T11:30:58.229Z,100317.25
2023-03-21T11:34:06.272Z,100312.07
2023-03-21T11:36:40.907Z,100312.17
2023-03-21T11:39:32.127Z,100313.83
2023-03-21T11:42:03.510Z,100309.92
2023-03-21T11:44:42.684Z,100308.51
2023-03-21T11:47:14.756Z,100307.59
2023-03-21T11:49:55.698Z,100305.38
2023-03-21T11:52:45.826Z,100307.79
2023-03-21T11:55:43.340Z,100305.36
2023-03-21T11:58:28.091Z,100309.26
2023-03-21T12:01:04.918Z,100305.77
2023-03-21T12:03:56.933Z,100307.86
2023-03-21T12:06:36.204Z,100310.10
2023-03-21T12:09:18.693Z,100308.85
2023-03-21T12:12:03.885Z,100310.28
2023-03-21T12:14:48.698Z,100306.24
2023-03-21T12:17:31.902Z,100305.96
2023-03-21T12:20:22.983Z,100303.50
2023-03-21T12:23:06.798Z,100304.19
2023-03-21T12:25:46.043Z,100297.12
2023-03-21T12:28:33.214Z,100293.48
2023-03-21T12:31:12.809Z,100295.19
2023-03-21T12:33:58.970Z,100290.70
2023-03-21T12:36:45.013Z,100287.42
2023-03-21T12:39:30.608Z,100292.04
2023-03-21T12:42:07.830Z,100286.50
2023-03-21T12:44:44.797Z,100287.64
2023-03-21T12:47:21.455Z,100287.39
2023-03-21T12:50:02.741Z,100289.71
2023-03-21T12:52:38.282Z,100287.49
2023-03-21T12:55:19.968Z,100290.39
2023-03-21T12:57:57.960Z,100290.15
2023-03-21T13:00:35.582Z,100288.04
2023-03-21T13:03:13.409Z,100285.77
2023-03-21T13:05:58.349Z,100285.27
2023-03-21T13:08:35.006Z,100282.92
2023-03-21T13:11:12.083Z,100284.48
2023-03-21T13:13:49.064Z,100286.21
2023-03-21T13:16:27.252Z,100284.84
2023-03-21T13:19:04.294Z,100285.03
2023-03-21T13:21:46.419Z,100283.25
2023-03-21T13:24:33.929Z,100284.50
2023-03-21T13:27:11.951Z,100281.13
2023-03-21T13:29:52.125Z,100276.09
2023-03-21T13:32:30.576Z,100279.33
2023-03-21T13:35:05.866Z,100276.76
2023-03-21T13:37:51.713Z,100278.14
2023-03-21T13:40:29.363Z,100276.55
2023-03-21T13:43:03.937Z,100278.94
2023-03-21T13:45:46.629Z,100273.52
2023-03-21T13:48:31.656Z,100276.13
2023-03-21T13:51:07.717Z,100269.81
2023-03-21T13:53:43.928Z,100272.66
2023-03-21T13:56:25.891Z,100274.48
2023-03-21T13:59:11.210Z,100273.67
2023-03-21T14:02:02.079Z,100274.93
2023-03-21T14:04:42.551Z,100276.16
2023-03-21T14:07:28.788Z,100271.73
2023-03-21T14:10:05.198Z,100267.02
2023-03-21T14:13:02.066Z,100271.52
2023-03-21T14:15:43.737Z,100275.00
2023-03-21T14:18:35.274Z,100277.08
2023-03-21T14:21:24.688Z,100278.79
2023-03-21T14:24:13.218Z,100283.77
2023-03-21T14:26:47.551Z,100280.34
2023-03-21T14:29:27.107Z,100280.89
2023-03-21T14:32:00.584Z,100280.41
2023-03-21T14:34:36.348Z,100274.27
2023-03-21T14:37:13.608Z,100271.92
2023-03-21T14:39:44.854Z,100271.77
2023-03-21T14:42:17.906Z,100272.32
2023-03-21T14:44:55.272Z,100269.09
2023-03-21T14:47:29.585Z,100268.40
2023-03-21T14:50:02.116Z,100269.69
2023-03-21T14:52:35.659Z,100270.63
2023-03-21T14:55:16.252Z,100270.76
2023-03-21T14:57:48.046Z,100269.19
2023-03-21T15:00:24.877Z,100266.05
2023-03-21T15:02:58.991Z,100269.83
2023-03-21T15:05:33.187Z,100268.26
2023-03-21T15:08:09.230Z,100268.69
2023-03-21T15:10:40.922Z,100265.73
2023-03-21T15:13:20.631Z,100266.50
2023-03-21T15:15:52.300Z,100262.95
2023-03-21T15:18:27.517Z,100265.23
2023-03-21T15:20:58.189Z,100261.69
2023-03-21T15:23:32.894Z,100263.13
2023-03-21T15:26:07.025Z,100262.36
2023-03-21T15:28:38.468Z,100258.50
2023-03-21T15:31:22.309Z,100258.61
2023-03-21T15:33:55.319Z,100260.23
2023-03-21T15:36:32.742Z,100258.05
2023-03-21T15:39:14.509Z,100257.41
2023-03-21T15:42:00.194Z,100258.53
2023-03-21T15:44:31.734Z,100261.83
2023-03-21T15:47:03.186Z,100262.41
2023-03-21T15:49:41.441Z,100259.35
2023-03-21T15:52:17.710Z,100259.23
2023-03-21T15:54:57.652Z,100256.34
2023-03-21T15:57:33.006Z,100256.36
2023-03-21T16:00:18.592Z,100258.77
2023-03-21T16:02:49.544Z,100254.50
2023-03-21T16:05:28.571Z,100255.58
2023-03-21T16:08:24.394Z,100257.86
2023-03-21T16:10:55.597Z,100256.54
2023-03-21T16:13:26.726Z,100260.53
2023-03-21T16:15:57.818Z,100260.09
2023-03-21T16:18:30.775Z,100257.55
2023-03-21T16:21:02.253Z,100261.19
2023-03-21T16:23:34.037Z,100258.50
2023-03-21T16:26:05.378Z,100258.52
2023-03-21T16:28:39.899Z,100257.58
2023-03-21T16:31:15.219Z,100257.67
2023-03-21T16:33:46.622Z,100256.41
2023-03-21T16:36:20.222Z,100256.52
2023-03-21T16:38:53.132Z,100257.48
2023-03-21T16:41:25.954Z,100257.44
2023-03-21T16:44:01.429Z,100258.06
2023-03-21T16:46:32.537Z,100259.22
2023-03-21T16:49:04.982Z,100258.63
2023-03-21T16:51:39.198Z,100258.93
2023-03-21T16:54:13.014Z,100261.59
2023-03-21T16:56:46.701Z,100262.71
2023-03-21T16:59:18.327Z,100266.40
2023-03-21T17:01:56.634Z,100270.09
2023-03-21T17:04:30.432Z,100273.96
2023-03-21T17:07:03.268Z,100277.66
2023-03-21T17:09:34.525Z,100283.55
2023-03-21T17:12:10.639Z,100289.98
2023-03-21T17:14:42.117Z,100292.25
2023-03-21T17:17:27.328Z,100293.68
2023-03-21T17:19:58.457Z,100296.63
2023-03-21T17:22:32.468Z,100296.17
2023-03-21T17:25:04.010Z,100297.44
2023-03-21T17:27:35.144Z,100303.46
2023-03-21T17:30:13.400Z,100303.68
2023-03-21T17:32:44.768Z,100305.09
2023-03-21T17:35:16.434Z,100302.23
2023-03-21T17:37:50.637Z,100303.80
2023-03-21T17:40:25.200Z,100305.36
2023-03-21T17:42:58.136Z,100307.95
2023-03-21T17:45:29.858Z,100309.34
2023-03-21T17:48:01.112Z,100315.70
2023-03-21T17:50:37.316Z,100317.62
2023-03-21T17:53:09.004Z,100317.46
2023-03-21T17:55:40.760Z,100319.03
2023-03-21T17:58:13.051Z,100323.33
2023-03-21T18:00:46.515Z,100322.02
2023-03-21T18:03:18.675Z,100323.73
2023-03-21T18:05:51.029Z,100328.04
2023-03-21T18:08:22.180Z,100332.13
2023-03-21T18:10:54.099Z,100337.44
2023-03-21T18:13:25.375Z,100340.17
2023-03-21T18:15:59.761Z,100343.09
2023-03-21T18:18:31.106Z,100344.96
2023-03-21T18:21:02.771Z,100346.52
2023-03-21T18:24:10.766Z,100347.88
2023-03-21T18:26:48.687Z,100353.18
2023-03-21T18:30:25.654Z,100350.46
2023-03-21T18:32:41.313Z,100350.30
2023-03-21T18:35:17.941Z,100351.33
2023-03-21T18:37:49.442Z,100355.43
2023-03-21T18:40:24.295Z,100354.41
2023-03-21T18:43:49.944Z,100355.27
2023-03-21T18:45:47.615Z,100357.16
2023-03-21T18:48:19.358Z,100356.82
2023-03-21T18:50:51.644Z,100353.75
2023-03-21T18:53:23.585Z,100352.36
2023-03-21T18:55:54.746Z,100351.86
2023-03-21T18:58:29.478Z,100354.23
2023-03-21T19:01:04.014Z,100352.53
2023-03-21T19:03:37.297Z,100354.23
2023-03-21T19:06:11.792Z,100354.23
2023-03-21T19:08:43.840Z,100354.23
2023-03-21T19:11:15.926Z,100353.70
2023-03-21T19:13:47.039Z,100353.20
2023-03-21T19:16:18.905Z,100354.56
2023-03-21T19:18:58.739Z,100350.98
2023-03-21T19:21:30.060Z,100350.12
2023-03-21T19:24:26.592Z,100350.79
2023-03-21T19:26:52.572Z,100349.77
2023-03-21T19:29:26.604Z,100353.84
2023-03-21T19:35:37.311Z,100353.30
2023-03-21T19:38:08.926Z,100356.55
2023-03-21T19:40:42.720Z,100356.20
2023-03-21T19:43:32.766Z,100355.85
2023-03-21T19:46:04.913Z,100352.09
2023-03-21T19:48:38.146Z,100357.03
2023-03-21T19:51:28.704Z,100354.64
2023-03-21T19:54:01.556Z,100355.32
2023-03-21T19:56:34.535Z,100356.67
2023-03-21T20:03:27.866Z,100368.05
2023-03-21T20:06:06.983Z,100368.23
2023-03-21T20:09:05.290Z,100366.86
2023-03-21T20:11:30.694Z,100366.54
2023-03-21T20:14:03.398Z,100358.89
2023-03-21T20:16:37.081Z,100359.06
2023-03-21T20:19:10.388Z,100359.41
2023-03-21T20:21:49.757Z,100362.48
2023-03-21T20:24:26.400Z,100368.95
2023-03-21T20:26:59.140Z,100370.16
2023-03-21T20:32:24.377Z,100374.06
2023-03-21T20:35:07.390Z,100376.12
2023-03-21T20:37:51.848Z,100374.23
2023-03-21T20:40:24.395Z,100375.77
2023-03-21T20:42:59.931Z,100373.22
2023-03-21T20:45:32.678Z,100374.23
2023-03-21T20:48:29.962Z,100370.83
2023-03-21T20:51:39.280Z,100371.48
2023-03-21T20:53:58.175Z,100366.73
2023-03-21T20:56:30.889Z,100367.05
2023-03-21T20:59:17.346Z,100365.51
2023-03-21T21:01:55.854Z,100362.25
2023-03-21T21:07:27.671Z,100355.92
2023-03-21T21:09:58.933Z,100354.73
2023-03-21T21:12:30.696Z,100356.42
2023-03-21T21:15:02.046Z,100354.52
2023-03-21T21:18:01.964Z,100353.50
2023-03-21T21:20:25.362Z,100358.25
2023-03-21T21:23:00.159Z,100355.52
2023-03-21T21:25:34.920Z,100357.37
2023-03-21T21:28:09.679Z,100355.13
2023-03-21T21:30:42.847Z,100362.08
2023-03-21T21:33:15.425Z,100363.07
2023-03-21T21:35:48.737Z,100359.83
2023-03-21T21:38:21.967Z,100356.58
2023-03-21T21:40:54.491Z,100356.05
2023-03-21T21:43:25.850Z,100353.99
2023-03-21T21:45:58.357Z,100353.47
2023-03-21T21:48:29.564Z,100356.17
2023-03-21T21:51:02.579Z,100358.36
2023-03-21T21:53:33.929Z,100352.73
2023-03-21T21:56:06.456Z,100355.76
2023-03-21T21:58:39.286Z,100354.54
2023-03-21T22:01:10.938Z,100351.29
2023-03-21T22:03:46.375Z,100350.77
2023-03-21T22:06:17.755Z,100354.48
2023-03-21T22:08:51.973Z,100358.39
2023-03-21T22:11:24.298Z,100363.48
2023-03-21T22:13:56.113Z,100361.58
2023-03-21T22:16:27.255Z,100368.19
2023-03-21T22:18:58.351Z,100363.75
2023-03-21T22:21:29.300Z,100363.39
2023-03-21T22:24:00.233Z,100369.82
2023-03-21T22:26:33.692Z,100368.61
2023-03-21T22:29:08.458Z,100367.55
2023-03-21T22:31:41.992Z,100368.05
2023-03-21T22:34:12.994Z,100368.02
2023-03-21T22:36:50.540Z,100362.24
2023-03-21T22:39:26.242Z,100356.11
2023-03-21T22:42:01.008Z,100354.39
2023-03-21T22:44:35.020Z,100353.52
2023-03-21T22:47:08.075Z,100354.35
2023-03-21T22:49:39.994Z,100356.02
2023-03-21T22:52:11.295Z,100354.99
2023-03-21T22:54:42.541Z,100354.47
2023-03-21T22:57:14.249Z,100357.48
2023-03-21T22:59:45.366Z,100356.29
2023-03-21T23:02:16.383Z,100354.40
2023-03-21T23:04:47.491Z,100355.24
2023-03-21T23:07:20.669Z,100351.81
2023-03-21T23:09:51.928Z,100351.97
2023-03-21T23:12:22.833Z,100352.29
2023-03-21T23:14:53.826Z,100349.41
2023-03-21T23:17:25.057Z,100349.23
2023-03-21T23:19:55.965Z,100351.05
2023-03-21T23:22:31.005Z,100355.14
2023-03-21T23:25:02.633Z,100360.36
2023-03-21T23:27:35.696Z,100357.62
2023-03-21T23:30:08.123Z,100358.60
2023-03-21T23:32:39.156Z,100355.52
2023-03-21T23:35:11.990Z,100353.64
2023-03-21T23:37:52.440Z,100355.83
2023-03-21T23:40:23.826Z,100350.38
2023-03-21T23:42:54.813Z,100349.35
2023-03-21T23:45:25.793Z,100347.13
2023-03-21T23:47:56.831Z,100346.77
2023-03-21T23:50:27.766Z,100343.70
2023-03-21T23:52:58.665Z,100335.70
2023-03-21T23:55:29.853Z,100337.06
2023-03-21T23:58:00.761Z,100335.02
